sensor_id;sensor_type;location;lat;lon;timestamp;P1;durP1;ratioP1;P2;durP2;ratioP2
29954;SDS011;68448;51.188;6.868;2023-05-14T00:01:11;21.80;;;15.00;;
29954;SDS011;68448;51.188;6.868;2023-05-14T00:03:38;17.07;;;13.67;;
29954;SDS011;68448;51.188;6.868;2023-05-14T00:06:05;15.53;;;12.70;;
29954;SDS011;68448;51.188;6.868;2023-05-14T00:08:32;29.13;;;15.27;;
29954;SDS011;68448;51.188;6.868;2023-05-14T00:10:59;19.37;;;13.87;;
29954;SDS011;68448;51.188;6.868;2023-05-14T00:13:28;22.23;;;13.50;;
29954;SDS011;68448;51.188;6.868;2023-05-14T00:15:55;17.97;;;13.27;;
29954;SDS011;68448;51.188;6.868;2023-05-14T00:18:22;16.53;;;13.90;;
29954;SDS011;68448;51.188;6.868;2023-05-14T00:20:49;23.67;;;14.33;;
29954;SDS011;68448;51.188;6.868;2023-05-14T00:23:16;19.97;;;14.30;;
29954;SDS011;68448;51.188;6.868;2023-05-14T00:25:43;20.30;;;15.37;;
29954;SDS011;68448;51.188;6.868;2023-05-14T00:28:11;17.17;;;13.70;;
29954;SDS011;68448;51.188;6.868;2023-05-14T00:30:39;19.83;;;13.40;;
29954;SDS011;68448;51.188;6.868;2023-05-14T00:33:07;21.23;;;13.93;;
29954;SDS011;68448;51.188;6.868;2023-05-14T00:35:34;24.30;;;14.60;;
29954;SDS011;68448;51.188;6.868;2023-05-14T00:38:01;24.23;;;15.10;;
29954;SDS011;68448;51.188;6.868;2023-05-14T00:40:29;23.43;;;14.00;;
29954;SDS011;68448;51.188;6.868;2023-05-14T00:42:56;19.40;;;14.40;;
29954;SDS011;68448;51.188;6.868;2023-05-14T00:45:23;22.53;;;14.80;;
29954;SDS011;68448;51.188;6.868;2023-05-14T00:47:51;20.00;;;14.90;;
29954;SDS011;68448;51.188;6.868;2023-05-14T00:50:19;18.60;;;14.07;;
29954;SDS011;68448;51.188;6.868;2023-05-14T00:52:47;20.70;;;15.03;;
29954;SDS011;68448;51.188;6.868;2023-05-14T00:55:15;19.07;;;14.70;;
29954;SDS011;68448;51.188;6.868;2023-05-14T00:57:43;19.93;;;14.63;;
29954;SDS011;68448;51.188;6.868;2023-05-14T01:00:10;20.30;;;14.50;;
29954;SDS011;68448;51.188;6.868;2023-05-14T01:02:37;18.27;;;15.07;;
29954;SDS011;68448;51.188;6.868;2023-05-14T01:05:06;21.07;;;15.70;;
29954;SDS011;68448;51.188;6.868;2023-05-14T01:07:36;21.70;;;15.00;;
29954;SDS011;68448;51.188;6.868;2023-05-14T01:10:07;19.00;;;14.33;;
29954;SDS011;68448;51.188;6.868;2023-05-14T01:12:36;24.17;;;16.73;;
29954;SDS011;68448;51.188;6.868;2023-05-14T01:15:07;20.00;;;14.17;;
29954;SDS011;68448;51.188;6.868;2023-05-14T01:17:37;20.83;;;13.80;;
29954;SDS011;68448;51.188;6.868;2023-05-14T01:20:09;25.20;;;15.93;;
29954;SDS011;68448;51.188;6.868;2023-05-14T01:22:37;24.20;;;16.60;;
29954;SDS011;68448;51.188;6.868;2023-05-14T01:25:05;20.70;;;15.40;;
29954;SDS011;68448;51.188;6.868;2023-05-14T01:27:34;26.00;;;17.30;;
29954;SDS011;68448;51.188;6.868;2023-05-14T01:30:02;22.93;;;16.20;;
29954;SDS011;68448;51.188;6.868;2023-05-14T01:32:33;19.83;;;15.00;;
29954;SDS011;68448;51.188;6.868;2023-05-14T01:35:00;25.43;;;16.53;;
29954;SDS011;68448;51.188;6.868;2023-05-14T01:37:28;22.00;;;16.50;;
29954;SDS011;68448;51.188;6.868;2023-05-14T01:39:57;19.83;;;16.00;;
29954;SDS011;68448;51.188;6.868;2023-05-14T01:42:25;22.43;;;15.93;;
29954;SDS011;68448;51.188;6.868;2023-05-14T01:44:53;28.97;;;17.70;;
29954;SDS011;68448;51.188;6.868;2023-05-14T01:47:20;21.17;;;17.23;;
29954;SDS011;68448;51.188;6.868;2023-05-14T01:49:47;20.37;;;16.63;;
29954;SDS011;68448;51.188;6.868;2023-05-14T01:52:15;20.70;;;15.83;;
29954;SDS011;68448;51.188;6.868;2023-05-14T01:54:42;26.20;;;18.60;;
29954;SDS011;68448;51.188;6.868;2023-05-14T01:57:10;23.77;;;17.60;;
29954;SDS011;68448;51.188;6.868;2023-05-14T01:59:37;20.20;;;16.10;;
29954;SDS011;68448;51.188;6.868;2023-05-14T02:02:04;26.47;;;17.40;;
29954;SDS011;68448;51.188;6.868;2023-05-14T02:04:31;22.47;;;16.87;;
29954;SDS011;68448;51.188;6.868;2023-05-14T02:06:58;20.43;;;16.90;;
29954;SDS011;68448;51.188;6.868;2023-05-14T02:09:25;24.70;;;17.27;;
29954;SDS011;68448;51.188;6.868;2023-05-14T02:11:53;22.80;;;16.73;;
29954;SDS011;68448;51.188;6.868;2023-05-14T02:14:21;22.23;;;18.00;;
29954;SDS011;68448;51.188;6.868;2023-05-14T02:16:48;23.27;;;17.90;;
29954;SDS011;68448;51.188;6.868;2023-05-14T02:19:15;24.53;;;17.50;;
29954;SDS011;68448;51.188;6.868;2023-05-14T02:21:43;22.67;;;16.53;;
29954;SDS011;68448;51.188;6.868;2023-05-14T02:24:10;25.80;;;17.90;;
29954;SDS011;68448;51.188;6.868;2023-05-14T02:26:37;26.00;;;17.90;;
29954;SDS011;68448;51.188;6.868;2023-05-14T02:29:04;24.50;;;17.23;;
29954;SDS011;68448;51.188;6.868;2023-05-14T02:31:32;20.50;;;16.27;;
29954;SDS011;68448;51.188;6.868;2023-05-14T02:34:00;18.40;;;15.97;;
29954;SDS011;68448;51.188;6.868;2023-05-14T02:36:27;22.87;;;16.07;;
29954;SDS011;68448;51.188;6.868;2023-05-14T02:38:54;26.13;;;17.83;;
29954;SDS011;68448;51.188;6.868;2023-05-14T02:41:21;24.70;;;18.03;;
29954;SDS011;68448;51.188;6.868;2023-05-14T02:43:48;26.40;;;17.03;;
29954;SDS011;68448;51.188;6.868;2023-05-14T02:46:15;23.20;;;17.57;;
29954;SDS011;68448;51.188;6.868;2023-05-14T02:48:43;23.07;;;16.43;;
29954;SDS011;68448;51.188;6.868;2023-05-14T02:51:11;23.23;;;17.10;;
29954;SDS011;68448;51.188;6.868;2023-05-14T02:53:38;27.70;;;16.87;;
29954;SDS011;68448;51.188;6.868;2023-05-14T02:56:05;23.63;;;15.90;;
29954;SDS011;68448;51.188;6.868;2023-05-14T02:58:32;21.93;;;15.80;;
29954;SDS011;68448;51.188;6.868;2023-05-14T03:00:59;25.00;;;17.20;;
29954;SDS011;68448;51.188;6.868;2023-05-14T03:03:27;20.40;;;15.30;;
29954;SDS011;68448;51.188;6.868;2023-05-14T03:05:56;24.07;;;17.37;;
29954;SDS011;68448;51.188;6.868;2023-05-14T03:08:24;21.80;;;16.07;;
29954;SDS011;68448;51.188;6.868;2023-05-14T03:10:51;26.33;;;17.20;;
29954;SDS011;68448;51.188;6.868;2023-05-14T03:13:18;21.93;;;16.37;;
29954;SDS011;68448;51.188;6.868;2023-05-14T03:15:46;22.70;;;17.40;;
29954;SDS011;68448;51.188;6.868;2023-05-14T03:18:13;23.80;;;16.10;;
29954;SDS011;68448;51.188;6.868;2023-05-14T03:20:40;26.50;;;19.10;;
29954;SDS011;68448;51.188;6.868;2023-05-14T03:23:09;23.57;;;17.00;;
29954;SDS011;68448;51.188;6.868;2023-05-14T03:25:36;26.77;;;18.30;;
29954;SDS011;68448;51.188;6.868;2023-05-14T03:28:03;23.70;;;17.70;;
29954;SDS011;68448;51.188;6.868;2023-05-14T03:30:31;24.93;;;17.10;;
29954;SDS011;68448;51.188;6.868;2023-05-14T03:32:58;30.57;;;17.73;;
29954;SDS011;68448;51.188;6.868;2023-05-14T03:35:25;34.13;;;19.07;;
29954;SDS011;68448;51.188;6.868;2023-05-14T03:37:52;29.97;;;17.40;;
29954;SDS011;68448;51.188;6.868;2023-05-14T03:40:21;20.53;;;16.70;;
29954;SDS011;68448;51.188;6.868;2023-05-14T03:42:49;26.20;;;19.10;;
29954;SDS011;68448;51.188;6.868;2023-05-14T03:45:17;25.83;;;19.07;;
29954;SDS011;68448;51.188;6.868;2023-05-14T03:47:44;21.00;;;17.00;;
29954;SDS011;68448;51.188;6.868;2023-05-14T03:50:11;29.27;;;19.07;;
29954;SDS011;68448;51.188;6.868;2023-05-14T03:52:38;28.00;;;17.87;;
29954;SDS011;68448;51.188;6.868;2023-05-14T03:55:06;26.20;;;18.90;;
29954;SDS011;68448;51.188;6.868;2023-05-14T03:57:36;21.77;;;17.07;;
29954;SDS011;68448;51.188;6.868;2023-05-14T04:00:03;27.60;;;18.53;;
29954;SDS011;68448;51.188;6.868;2023-05-14T04:02:41;28.83;;;19.43;;
29954;SDS011;68448;51.188;6.868;2023-05-14T04:05:09;26.77;;;18.20;;
29954;SDS011;68448;51.188;6.868;2023-05-14T04:07:36;26.47;;;17.93;;
29954;SDS011;68448;51.188;6.868;2023-05-14T04:10:04;21.60;;;15.90;;
29954;SDS011;68448;51.188;6.868;2023-05-14T04:12:33;23.53;;;17.90;;
29954;SDS011;68448;51.188;6.868;2023-05-14T04:15:02;23.87;;;16.90;;
29954;SDS011;68448;51.188;6.868;2023-05-14T04:17:30;25.00;;;16.33;;
29954;SDS011;68448;51.188;6.868;2023-05-14T04:20:00;25.20;;;17.60;;
29954;SDS011;68448;51.188;6.868;2023-05-14T04:22:27;27.83;;;17.80;;
29954;SDS011;68448;51.188;6.868;2023-05-14T04:24:54;35.60;;;19.13;;
29954;SDS011;68448;51.188;6.868;2023-05-14T04:27:21;23.53;;;16.70;;
29954;SDS011;68448;51.188;6.868;2023-05-14T04:29:49;25.87;;;18.60;;
29954;SDS011;68448;51.188;6.868;2023-05-14T04:32:17;25.50;;;18.07;;
29954;SDS011;68448;51.188;6.868;2023-05-14T04:34:44;25.63;;;18.20;;
29954;SDS011;68448;51.188;6.868;2023-05-14T04:37:11;24.37;;;18.23;;
29954;SDS011;68448;51.188;6.868;2023-05-14T04:39:39;23.43;;;18.73;;
29954;SDS011;68448;51.188;6.868;2023-05-14T04:42:06;26.67;;;19.27;;
29954;SDS011;68448;51.188;6.868;2023-05-14T04:44:33;25.33;;;18.83;;
29954;SDS011;68448;51.188;6.868;2023-05-14T04:47:00;29.77;;;19.33;;
29954;SDS011;68448;51.188;6.868;2023-05-14T04:49:29;27.10;;;19.37;;
29954;SDS011;68448;51.188;6.868;2023-05-14T04:51:56;27.90;;;17.70;;
29954;SDS011;68448;51.188;6.868;2023-05-14T04:54:23;27.13;;;18.97;;
29954;SDS011;68448;51.188;6.868;2023-05-14T04:56:50;30.33;;;18.33;;
29954;SDS011;68448;51.188;6.868;2023-05-14T04:59:17;26.60;;;17.90;;
29954;SDS011;68448;51.188;6.868;2023-05-14T05:01:45;24.57;;;18.00;;
29954;SDS011;68448;51.188;6.868;2023-05-14T05:04:12;25.63;;;17.83;;
29954;SDS011;68448;51.188;6.868;2023-05-14T05:06:40;27.93;;;19.20;;
29954;SDS011;68448;51.188;6.868;2023-05-14T05:09:07;27.07;;;18.20;;
29954;SDS011;68448;51.188;6.868;2023-05-14T05:11:34;28.10;;;18.50;;
29954;SDS011;68448;51.188;6.868;2023-05-14T05:14:01;30.13;;;20.47;;
29954;SDS011;68448;51.188;6.868;2023-05-14T05:16:28;24.90;;;18.30;;
29954;SDS011;68448;51.188;6.868;2023-05-14T05:18:56;24.70;;;19.03;;
29954;SDS011;68448;51.188;6.868;2023-05-14T05:21:23;28.43;;;18.30;;
29954;SDS011;68448;51.188;6.868;2023-05-14T05:23:52;25.23;;;17.60;;
29954;SDS011;68448;51.188;6.868;2023-05-14T05:26:19;26.30;;;19.03;;
29954;SDS011;68448;51.188;6.868;2023-05-14T05:28:46;24.70;;;19.27;;
29954;SDS011;68448;51.188;6.868;2023-05-14T05:31:13;26.33;;;17.73;;
29954;SDS011;68448;51.188;6.868;2023-05-14T05:33:43;26.07;;;18.30;;
29954;SDS011;68448;51.188;6.868;2023-05-14T05:36:10;25.50;;;18.77;;
29954;SDS011;68448;51.188;6.868;2023-05-14T05:38:37;27.70;;;19.40;;
29954;SDS011;68448;51.188;6.868;2023-05-14T05:41:06;23.93;;;18.33;;
29954;SDS011;68448;51.188;6.868;2023-05-14T05:43:33;24.97;;;18.00;;
29954;SDS011;68448;51.188;6.868;2023-05-14T05:46:00;27.00;;;18.83;;
29954;SDS011;68448;51.188;6.868;2023-05-14T05:48:27;25.63;;;18.43;;
29954;SDS011;68448;51.188;6.868;2023-05-14T05:50:54;29.47;;;18.97;;
29954;SDS011;68448;51.188;6.868;2023-05-14T05:53:21;25.60;;;19.77;;
29954;SDS011;68448;51.188;6.868;2023-05-14T05:55:48;26.47;;;18.10;;
29954;SDS011;68448;51.188;6.868;2023-05-14T05:58:17;23.73;;;18.27;;
29954;SDS011;68448;51.188;6.868;2023-05-14T06:00:44;24.07;;;17.13;;
29954;SDS011;68448;51.188;6.868;2023-05-14T06:03:12;25.47;;;19.10;;
29954;SDS011;68448;51.188;6.868;2023-05-14T06:05:39;24.63;;;18.90;;
29954;SDS011;68448;51.188;6.868;2023-05-14T06:08:06;22.20;;;18.33;;
29954;SDS011;68448;51.188;6.868;2023-05-14T06:10:33;25.40;;;17.63;;
29954;SDS011;68448;51.188;6.868;2023-05-14T06:13:00;22.63;;;17.60;;
29954;SDS011;68448;51.188;6.868;2023-05-14T06:15:29;22.43;;;17.97;;
29954;SDS011;68448;51.188;6.868;2023-05-14T06:17:56;22.90;;;16.70;;
29954;SDS011;68448;51.188;6.868;2023-05-14T06:20:23;24.90;;;19.20;;
29954;SDS011;68448;51.188;6.868;2023-05-14T06:22:51;30.63;;;18.60;;
29954;SDS011;68448;51.188;6.868;2023-05-14T06:25:18;25.60;;;18.40;;
29954;SDS011;68448;51.188;6.868;2023-05-14T06:27:45;24.20;;;18.83;;
29954;SDS011;68448;51.188;6.868;2023-05-14T06:30:12;22.80;;;17.93;;
29954;SDS011;68448;51.188;6.868;2023-05-14T06:32:41;24.43;;;18.53;;
29954;SDS011;68448;51.188;6.868;2023-05-14T06:35:08;25.10;;;19.53;;
29954;SDS011;68448;51.188;6.868;2023-05-14T06:37:36;29.73;;;19.30;;
29954;SDS011;68448;51.188;6.868;2023-05-14T06:40:03;22.13;;;18.33;;
29954;SDS011;68448;51.188;6.868;2023-05-14T06:42:30;24.90;;;18.30;;
29954;SDS011;68448;51.188;6.868;2023-05-14T06:44:58;28.67;;;18.63;;
29954;SDS011;68448;51.188;6.868;2023-05-14T06:47:25;21.63;;;18.83;;
29954;SDS011;68448;51.188;6.868;2023-05-14T06:49:53;27.80;;;20.40;;
29954;SDS011;68448;51.188;6.868;2023-05-14T06:52:20;24.80;;;19.50;;
29954;SDS011;68448;51.188;6.868;2023-05-14T06:54:47;25.97;;;21.27;;
29954;SDS011;68448;51.188;6.868;2023-05-14T06:57:14;29.63;;;24.00;;
29954;SDS011;68448;51.188;6.868;2023-05-14T06:59:42;29.73;;;23.47;;
29954;SDS011;68448;51.188;6.868;2023-05-14T07:02:09;29.80;;;22.13;;
29954;SDS011;68448;51.188;6.868;2023-05-14T07:04:36;29.23;;;22.10;;
29954;SDS011;68448;51.188;6.868;2023-05-14T07:07:04;26.77;;;22.77;;
29954;SDS011;68448;51.188;6.868;2023-05-14T07:09:31;32.73;;;23.87;;
29954;SDS011;68448;51.188;6.868;2023-05-14T07:11:58;29.80;;;22.70;;
29954;SDS011;68448;51.188;6.868;2023-05-14T07:14:26;33.00;;;25.17;;
29954;SDS011;68448;51.188;6.868;2023-05-14T07:16:53;31.10;;;21.87;;
29954;SDS011;68448;51.188;6.868;2023-05-14T07:19:20;28.83;;;22.77;;
29954;SDS011;68448;51.188;6.868;2023-05-14T07:21:47;32.93;;;23.77;;
29954;SDS011;68448;51.188;6.868;2023-05-14T07:24:15;32.60;;;23.40;;
29954;SDS011;68448;51.188;6.868;2023-05-14T07:26:42;28.40;;;23.50;;
29954;SDS011;68448;51.188;6.868;2023-05-14T07:29:09;26.53;;;22.37;;
29954;SDS011;68448;51.188;6.868;2023-05-14T07:31:37;27.60;;;22.20;;
29954;SDS011;68448;51.188;6.868;2023-05-14T07:34:04;32.10;;;22.90;;
29954;SDS011;68448;51.188;6.868;2023-05-14T07:36:31;29.80;;;22.33;;
29954;SDS011;68448;51.188;6.868;2023-05-14T07:38:58;30.93;;;22.83;;
29954;SDS011;68448;51.188;6.868;2023-05-14T07:41:27;30.50;;;25.73;;
29954;SDS011;68448;51.188;6.868;2023-05-14T07:43:54;27.73;;;21.47;;
29954;SDS011;68448;51.188;6.868;2023-05-14T07:46:21;35.43;;;22.73;;
29954;SDS011;68448;51.188;6.868;2023-05-14T07:48:48;28.37;;;23.10;;
29954;SDS011;68448;51.188;6.868;2023-05-14T07:51:15;25.97;;;21.30;;
29954;SDS011;68448;51.188;6.868;2023-05-14T07:53:42;25.70;;;20.80;;
29954;SDS011;68448;51.188;6.868;2023-05-14T07:56:09;22.93;;;18.40;;
29954;SDS011;68448;51.188;6.868;2023-05-14T07:58:38;24.03;;;19.13;;
29954;SDS011;68448;51.188;6.868;2023-05-14T08:01:05;25.97;;;21.00;;
29954;SDS011;68448;51.188;6.868;2023-05-14T08:03:32;22.53;;;18.00;;
29954;SDS011;68448;51.188;6.868;2023-05-14T08:05:59;21.10;;;18.07;;
29954;SDS011;68448;51.188;6.868;2023-05-14T08:08:26;20.57;;;17.10;;
29954;SDS011;68448;51.188;6.868;2023-05-14T08:10:53;25.87;;;19.97;;
29954;SDS011;68448;51.188;6.868;2023-05-14T08:13:20;27.47;;;21.77;;
29954;SDS011;68448;51.188;6.868;2023-05-14T08:15:49;27.50;;;20.10;;
29954;SDS011;68448;51.188;6.868;2023-05-14T08:18:16;24.80;;;19.90;;
29954;SDS011;68448;51.188;6.868;2023-05-14T08:20:43;24.03;;;19.37;;
29954;SDS011;68448;51.188;6.868;2023-05-14T08:23:10;19.90;;;17.87;;
29954;SDS011;68448;51.188;6.868;2023-05-14T08:25:37;20.43;;;17.97;;
29954;SDS011;68448;51.188;6.868;2023-05-14T08:28:04;33.63;;;19.10;;
29954;SDS011;68448;51.188;6.868;2023-05-14T08:30:31;23.50;;;19.10;;
29954;SDS011;68448;51.188;6.868;2023-05-14T08:33:00;23.20;;;18.83;;
29954;SDS011;68448;51.188;6.868;2023-05-14T08:35:27;20.90;;;17.20;;
29954;SDS011;68448;51.188;6.868;2023-05-14T08:37:54;28.03;;;18.57;;
29954;SDS011;68448;51.188;6.868;2023-05-14T08:40:21;22.43;;;16.40;;
29954;SDS011;68448;51.188;6.868;2023-05-14T08:42:49;22.53;;;18.33;;
29954;SDS011;68448;51.188;6.868;2023-05-14T08:45:17;18.60;;;15.97;;
29954;SDS011;68448;51.188;6.868;2023-05-14T08:47:45;19.37;;;16.60;;
29954;SDS011;68448;51.188;6.868;2023-05-14T08:50:14;21.07;;;17.00;;
29954;SDS011;68448;51.188;6.868;2023-05-14T08:52:41;19.27;;;15.97;;
29954;SDS011;68448;51.188;6.868;2023-05-14T08:55:09;18.93;;;16.20;;
29954;SDS011;68448;51.188;6.868;2023-05-14T08:57:37;17.20;;;14.37;;
29954;SDS011;68448;51.188;6.868;2023-05-14T09:00:04;17.87;;;15.97;;
29954;SDS011;68448;51.188;6.868;2023-05-14T09:02:33;17.43;;;15.23;;
29954;SDS011;68448;51.188;6.868;2023-05-14T09:05:00;19.07;;;15.13;;
29954;SDS011;68448;51.188;6.868;2023-05-14T09:07:29;19.13;;;16.40;;
29954;SDS011;68448;51.188;6.868;2023-05-14T09:09:56;18.93;;;16.53;;
29954;SDS011;68448;51.188;6.868;2023-05-14T09:12:23;20.47;;;18.30;;
29954;SDS011;68448;51.188;6.868;2023-05-14T09:14:51;19.07;;;17.07;;
29954;SDS011;68448;51.188;6.868;2023-05-14T09:17:18;16.17;;;13.60;;
29954;SDS011;68448;51.188;6.868;2023-05-14T09:19:45;20.00;;;15.17;;
29954;SDS011;68448;51.188;6.868;2023-05-14T09:22:13;18.10;;;16.20;;
29954;SDS011;68448;51.188;6.868;2023-05-14T09:24:42;18.73;;;14.87;;
29954;SDS011;68448;51.188;6.868;2023-05-14T09:27:13;19.50;;;15.97;;
29954;SDS011;68448;51.188;6.868;2023-05-14T09:29:41;17.30;;;13.93;;
29954;SDS011;68448;51.188;6.868;2023-05-14T09:32:08;15.73;;;13.10;;
29954;SDS011;68448;51.188;6.868;2023-05-14T09:34:35;16.07;;;12.50;;
29954;SDS011;68448;51.188;6.868;2023-05-14T09:37:03;15.43;;;12.70;;
29954;SDS011;68448;51.188;6.868;2023-05-14T09:39:31;13.33;;;10.60;;
29954;SDS011;68448;51.188;6.868;2023-05-14T09:41:59;11.20;;;9.40;;
29954;SDS011;68448;51.188;6.868;2023-05-14T09:44:26;9.07;;;8.17;;
29954;SDS011;68448;51.188;6.868;2023-05-14T09:46:54;10.23;;;9.03;;
29954;SDS011;68448;51.188;6.868;2023-05-14T09:49:21;16.20;;;9.67;;
29954;SDS011;68448;51.188;6.868;2023-05-14T09:51:49;8.20;;;7.40;;
29954;SDS011;68448;51.188;6.868;2023-05-14T09:54:16;9.20;;;7.03;;
29954;SDS011;68448;51.188;6.868;2023-05-14T09:56:43;15.87;;;9.60;;
29954;SDS011;68448;51.188;6.868;2023-05-14T09:59:12;9.70;;;7.57;;
29954;SDS011;68448;51.188;6.868;2023-05-14T10:01:39;13.57;;;11.80;;
29954;SDS011;68448;51.188;6.868;2023-05-14T10:04:08;13.80;;;12.40;;
29954;SDS011;68448;51.188;6.868;2023-05-14T10:06:36;7.07;;;6.20;;
29954;SDS011;68448;51.188;6.868;2023-05-14T10:09:04;7.80;;;4.30;;
29954;SDS011;68448;51.188;6.868;2023-05-14T10:11:36;5.20;;;4.40;;
29954;SDS011;68448;51.188;6.868;2023-05-14T10:14:05;9.60;;;6.70;;
29954;SDS011;68448;51.188;6.868;2023-05-14T10:16:36;7.13;;;6.20;;
29954;SDS011;68448;51.188;6.868;2023-05-14T10:19:04;5.13;;;4.60;;
29954;SDS011;68448;51.188;6.868;2023-05-14T10:21:32;6.10;;;4.13;;
29954;SDS011;68448;51.188;6.868;2023-05-14T10:24:01;6.57;;;3.67;;
29954;SDS011;68448;51.188;6.868;2023-05-14T10:26:28;5.60;;;3.73;;
29954;SDS011;68448;51.188;6.868;2023-05-14T10:28:55;3.93;;;3.43;;
29954;SDS011;68448;51.188;6.868;2023-05-14T10:31:24;6.03;;;4.03;;
29954;SDS011;68448;51.188;6.868;2023-05-14T10:36:54;5.40;;;3.57;;
29954;SDS011;68448;51.188;6.868;2023-05-14T10:39:35;5.53;;;3.30;;
29954;SDS011;68448;51.188;6.868;2023-05-14T10:42:05;6.73;;;4.00;;
29954;SDS011;68448;51.188;6.868;2023-05-14T10:44:32;3.27;;;2.97;;
29954;SDS011;68448;51.188;6.868;2023-05-14T10:47:00;7.03;;;3.37;;
29954;SDS011;68448;51.188;6.868;2023-05-14T10:49:28;3.70;;;3.40;;
29954;SDS011;68448;51.188;6.868;2023-05-14T10:52:10;5.57;;;3.80;;
29954;SDS011;68448;51.188;6.868;2023-05-14T10:54:38;3.83;;;3.27;;
29954;SDS011;68448;51.188;6.868;2023-05-14T10:57:08;4.10;;;3.70;;
29954;SDS011;68448;51.188;6.868;2023-05-14T10:59:39;9.33;;;4.70;;
29954;SDS011;68448;51.188;6.868;2023-05-14T11:02:16;7.43;;;3.90;;
29954;SDS011;68448;51.188;6.868;2023-05-14T11:04:49;5.30;;;3.13;;
29954;SDS011;68448;51.188;6.868;2023-05-14T11:07:18;4.93;;;3.53;;
29954;SDS011;68448;51.188;6.868;2023-05-14T11:09:49;6.33;;;3.50;;
29954;SDS011;68448;51.188;6.868;2023-05-14T11:12:17;4.30;;;3.37;;
29954;SDS011;68448;51.188;6.868;2023-05-14T11:14:44;8.67;;;3.80;;
29954;SDS011;68448;51.188;6.868;2023-05-14T11:17:12;4.70;;;3.17;;
29954;SDS011;68448;51.188;6.868;2023-05-14T11:19:41;3.77;;;2.97;;
29954;SDS011;68448;51.188;6.868;2023-05-14T11:22:08;3.57;;;3.23;;
29954;SDS011;68448;51.188;6.868;2023-05-14T11:24:37;3.67;;;3.10;;
29954;SDS011;68448;51.188;6.868;2023-05-14T11:27:04;4.40;;;2.93;;
29954;SDS011;68448;51.188;6.868;2023-05-14T11:29:33;4.00;;;3.70;;
29954;SDS011;68448;51.188;6.868;2023-05-14T11:32:00;3.00;;;2.47;;
29954;SDS011;68448;51.188;6.868;2023-05-14T11:34:27;2.90;;;2.70;;
29954;SDS011;68448;51.188;6.868;2023-05-14T11:36:54;5.15;;;2.70;;
29954;SDS011;68448;51.188;6.868;2023-05-14T11:39:21;3.58;;;2.97;;
29954;SDS011;68448;51.188;6.868;2023-05-14T11:41:50;5.60;;;3.30;;
29954;SDS011;68448;51.188;6.868;2023-05-14T11:44:17;3.35;;;2.50;;
29954;SDS011;68448;51.188;6.868;2023-05-14T11:46:52;6.35;;;3.00;;
29954;SDS011;68448;51.188;6.868;2023-05-14T11:49:20;3.25;;;2.72;;
29954;SDS011;68448;51.188;6.868;2023-05-14T11:51:47;3.85;;;2.67;;
29954;SDS011;68448;51.188;6.868;2023-05-14T11:54:14;3.35;;;2.60;;
29954;SDS011;68448;51.188;6.868;2023-05-14T11:56:41;3.25;;;2.40;;
29954;SDS011;68448;51.188;6.868;2023-05-14T11:59:10;2.58;;;2.35;;
29954;SDS011;68448;51.188;6.868;2023-05-14T12:01:37;6.30;;;2.67;;
29954;SDS011;68448;51.188;6.868;2023-05-14T12:04:05;4.45;;;2.63;;
29954;SDS011;68448;51.188;6.868;2023-05-14T12:06:32;2.67;;;2.47;;
29954;SDS011;68448;51.188;6.868;2023-05-14T12:08:59;3.13;;;2.47;;
29954;SDS011;68448;51.188;6.868;2023-05-14T12:11:29;3.72;;;2.90;;
29954;SDS011;68448;51.188;6.868;2023-05-14T12:13:56;3.83;;;2.65;;
29954;SDS011;68448;51.188;6.868;2023-05-14T12:16:28;3.10;;;2.30;;
29954;SDS011;68448;51.188;6.868;2023-05-14T12:18:58;3.88;;;2.85;;
29954;SDS011;68448;51.188;6.868;2023-05-14T12:21:25;3.10;;;2.80;;
29954;SDS011;68448;51.188;6.868;2023-05-14T12:23:55;5.57;;;2.63;;
29954;SDS011;68448;51.188;6.868;2023-05-14T12:26:22;4.13;;;2.78;;
29954;SDS011;68448;51.188;6.868;2023-05-14T12:28:55;2.45;;;2.25;;
29954;SDS011;68448;51.188;6.868;2023-05-14T12:31:27;4.78;;;2.72;;
29954;SDS011;68448;51.188;6.868;2023-05-14T12:33:55;2.45;;;2.28;;
29954;SDS011;68448;51.188;6.868;2023-05-14T12:36:22;4.40;;;2.75;;
29954;SDS011;68448;51.188;6.868;2023-05-14T12:38:49;2.72;;;2.58;;
29954;SDS011;68448;51.188;6.868;2023-05-14T12:41:16;4.68;;;2.53;;
29954;SDS011;68448;51.188;6.868;2023-05-14T12:43:44;2.70;;;2.50;;
29954;SDS011;68448;51.188;6.868;2023-05-14T12:46:13;3.05;;;2.58;;
29954;SDS011;68448;51.188;6.868;2023-05-14T12:48:41;4.47;;;3.00;;
29954;SDS011;68448;51.188;6.868;2023-05-14T12:51:09;3.97;;;2.80;;
29954;SDS011;68448;51.188;6.868;2023-05-14T12:53:36;3.53;;;2.85;;
29954;SDS011;68448;51.188;6.868;2023-05-14T12:56:03;3.45;;;3.15;;
29954;SDS011;68448;51.188;6.868;2023-05-14T12:58:30;3.83;;;3.40;;
29954;SDS011;68448;51.188;6.868;2023-05-14T13:00:57;4.53;;;3.47;;
29954;SDS011;68448;51.188;6.868;2023-05-14T13:03:24;3.92;;;2.70;;
29954;SDS011;68448;51.188;6.868;2023-05-14T13:05:53;2.90;;;2.70;;
29954;SDS011;68448;51.188;6.868;2023-05-14T13:08:20;2.83;;;2.63;;
29954;SDS011;68448;51.188;6.868;2023-05-14T13:10:47;4.53;;;3.05;;
29954;SDS011;68448;51.188;6.868;2023-05-14T13:13:15;3.05;;;2.75;;
29954;SDS011;68448;51.188;6.868;2023-05-14T13:15:42;5.72;;;3.10;;
29954;SDS011;68448;51.188;6.868;2023-05-14T13:18:09;3.95;;;2.80;;
29954;SDS011;68448;51.188;6.868;2023-05-14T13:20:36;2.55;;;2.45;;
29954;SDS011;68448;51.188;6.868;2023-05-14T13:23:04;2.95;;;2.75;;
29954;SDS011;68448;51.188;6.868;2023-05-14T13:25:32;3.08;;;2.85;;
29954;SDS011;68448;51.188;6.868;2023-05-14T13:27:59;3.00;;;2.67;;
29954;SDS011;68448;51.188;6.868;2023-05-14T13:30:26;2.60;;;2.40;;
29954;SDS011;68448;51.188;6.868;2023-05-14T13:32:53;3.95;;;2.83;;
29954;SDS011;68448;51.188;6.868;2023-05-14T13:35:20;2.92;;;2.60;;
29954;SDS011;68448;51.188;6.868;2023-05-14T13:37:48;2.65;;;2.40;;
29954;SDS011;68448;51.188;6.868;2023-05-14T13:40:16;2.95;;;2.40;;
29954;SDS011;68448;51.188;6.868;2023-05-14T13:42:43;2.90;;;2.70;;
29954;SDS011;68448;51.188;6.868;2023-05-14T13:45:11;3.97;;;2.65;;
29954;SDS011;68448;51.188;6.868;2023-05-14T13:47:38;7.00;;;2.75;;
29954;SDS011;68448;51.188;6.868;2023-05-14T13:50:06;4.80;;;2.58;;
29954;SDS011;68448;51.188;6.868;2023-05-14T13:52:33;2.67;;;2.33;;
29954;SDS011;68448;51.188;6.868;2023-05-14T13:55:00;2.75;;;2.55;;
29954;SDS011;68448;51.188;6.868;2023-05-14T13:57:28;3.47;;;2.97;;
29954;SDS011;68448;51.188;6.868;2023-05-14T13:59:55;2.97;;;2.60;;
29954;SDS011;68448;51.188;6.868;2023-05-14T14:02:22;3.55;;;2.90;;
29954;SDS011;68448;51.188;6.868;2023-05-14T14:04:50;3.00;;;2.80;;
29954;SDS011;68448;51.188;6.868;2023-05-14T14:07:17;3.33;;;3.03;;
29954;SDS011;68448;51.188;6.868;2023-05-14T14:09:44;3.00;;;2.63;;
29954;SDS011;68448;51.188;6.868;2023-05-14T14:12:11;5.40;;;3.08;;
29954;SDS011;68448;51.188;6.868;2023-05-14T14:14:39;4.63;;;2.95;;
29954;SDS011;68448;51.188;6.868;2023-05-14T14:17:07;3.30;;;3.10;;
29954;SDS011;68448;51.188;6.868;2023-05-14T14:19:34;3.15;;;2.50;;
29954;SDS011;68448;51.188;6.868;2023-05-14T14:22:01;3.00;;;2.70;;
29954;SDS011;68448;51.188;6.868;2023-05-14T14:24:28;5.53;;;3.35;;
29954;SDS011;68448;51.188;6.868;2023-05-14T14:26:55;5.05;;;2.80;;
29954;SDS011;68448;51.188;6.868;2023-05-14T14:29:22;2.92;;;2.63;;
29954;SDS011;68448;51.188;6.868;2023-05-14T14:31:50;4.28;;;3.60;;
29954;SDS011;68448;51.188;6.868;2023-05-14T14:34:18;4.40;;;3.00;;
29954;SDS011;68448;51.188;6.868;2023-05-14T14:36:45;4.25;;;2.97;;